createdAt,value
2018-07-16T00:02:12.467Z,22.75
2018-07-16T00:04:40.083Z,22.73
2018-07-16T00:07:07.654Z,22.70
2018-07-16T00:09:35.750Z,22.70
2018-07-16T00:12:03.416Z,22.69
2018-07-16T00:14:31.039Z,22.69
2018-07-16T00:16:59.114Z,22.67
2018-07-16T00:19:26.683Z,22.70
2018-07-16T00:21:54.240Z,22.71
2018-07-16T00:24:21.763Z,22.74
2018-07-16T00:26:49.526Z,22.74
2018-07-16T00:29:17.077Z,22.74
2018-07-16T00:31:44.651Z,22.75
2018-07-16T00:34:12.235Z,22.76
2018-07-16T00:36:39.758Z,22.81
2018-07-16T00:39:07.299Z,22.84
2018-07-16T00:41:34.866Z,22.82
2018-07-16T00:44:02.601Z,22.84
2018-07-16T00:46:30.382Z,22.86
2018-07-16T00:48:57.968Z,22.80
2018-07-16T00:51:25.506Z,22.77
2018-07-16T00:53:53.330Z,22.74
2018-07-16T00:56:20.919Z,22.79
2018-07-16T00:58:48.482Z,22.77
2018-07-16T01:01:16.010Z,22.78
2018-07-16T01:03:43.666Z,22.81
2018-07-16T01:06:11.199Z,22.80
2018-07-16T01:08:38.754Z,22.71
2018-07-16T01:11:06.391Z,22.67
2018-07-16T01:13:33.927Z,22.72
2018-07-16T01:16:01.464Z,22.68
2018-07-16T01:18:29.072Z,22.54
2018-07-16T01:20:56.611Z,22.45
2018-07-16T01:23:24.158Z,22.41
2018-07-16T01:25:51.817Z,22.49
2018-07-16T01:28:19.497Z,22.55
2018-07-16T01:30:47.191Z,22.59
2018-07-16T01:33:14.829Z,22.56
2018-07-16T01:35:42.401Z,22.61
2018-07-16T01:38:09.931Z,22.66
2018-07-16T01:40:37.503Z,22.65
2018-07-16T01:43:06.084Z,22.68
2018-07-16T01:45:33.622Z,22.71
2018-07-16T01:48:01.219Z,22.70
2018-07-16T01:50:28.798Z,22.56
2018-07-16T01:52:56.352Z,22.48
2018-07-16T01:55:23.964Z,22.39
2018-07-16T01:57:51.552Z,22.34
2018-07-16T02:00:19.241Z,22.25
2018-07-16T02:02:46.822Z,22.27
2018-07-16T02:05:14.388Z,22.34
2018-07-16T02:07:41.931Z,22.37
2018-07-16T02:10:09.498Z,22.38
2018-07-16T02:12:37.037Z,22.37
2018-07-16T02:15:04.798Z,22.37
2018-07-16T02:17:32.451Z,22.37
2018-07-16T02:19:59.972Z,22.26
2018-07-16T02:22:27.547Z,22.20
2018-07-16T02:24:55.137Z,22.20
2018-07-16T02:27:22.678Z,22.21
2018-07-16T02:29:50.238Z,22.21
2018-07-16T02:32:17.816Z,22.29
2018-07-16T02:34:45.347Z,22.28
2018-07-16T02:37:12.938Z,22.29
2018-07-16T02:39:40.537Z,22.29
2018-07-16T02:42:08.079Z,22.23
2018-07-16T02:44:35.639Z,22.24
2018-07-16T02:47:03.247Z,22.22
2018-07-16T02:49:30.806Z,22.23
2018-07-16T02:51:58.366Z,22.22
2018-07-16T02:54:25.937Z,22.23
2018-07-16T02:56:53.477Z,22.22
2018-07-16T02:59:21.523Z,22.22
2018-07-16T03:01:49.098Z,22.21
2018-07-16T03:04:16.671Z,22.21
2018-07-16T03:06:44.210Z,22.18
2018-07-16T03:09:11.770Z,22.18
2018-07-16T03:11:39.336Z,22.22
2018-07-16T03:14:07.042Z,22.22
2018-07-16T03:16:34.644Z,22.26
2018-07-16T03:19:02.255Z,22.23
2018-07-16T03:21:29.819Z,22.22
2018-07-16T03:23:57.393Z,22.25
2018-07-16T03:26:25.015Z,22.30
2018-07-16T03:28:52.589Z,22.33
2018-07-16T03:31:20.226Z,22.18
2018-07-16T03:33:47.754Z,22.13
2018-07-16T03:36:15.314Z,22.01
2018-07-16T03:38:42.902Z,21.97
2018-07-16T03:41:10.434Z,22.04
2018-07-16T03:43:37.991Z,22.09
2018-07-16T03:46:05.570Z,22.11
2018-07-16T03:48:33.143Z,22.15
2018-07-16T03:51:00.706Z,22.17
2018-07-16T03:53:28.267Z,22.19
2018-07-16T03:55:55.881Z,22.19
2018-07-16T03:58:23.373Z,22.13
2018-07-16T04:00:51.046Z,22.13
2018-07-16T04:03:18.594Z,22.13
2018-07-16T04:05:46.138Z,22.10
2018-07-16T04:08:13.714Z,22.15
2018-07-16T04:10:41.309Z,22.17
2018-07-16T04:13:08.886Z,22.16
2018-07-16T04:15:36.456Z,22.21
2018-07-16T04:18:08.726Z,22.17
2018-07-16T04:20:36.326Z,22.14
2018-07-16T04:23:03.921Z,22.11
2018-07-16T04:25:31.476Z,22.09
2018-07-16T04:27:59.046Z,22.00
2018-07-16T04:30:26.594Z,22.00
2018-07-16T04:32:54.150Z,22.07
2018-07-16T04:35:21.714Z,22.10
2018-07-16T04:37:49.632Z,22.14
2018-07-16T04:40:17.199Z,22.15
2018-07-16T04:42:44.750Z,22.17
2018-07-16T04:45:12.311Z,22.20
2018-07-16T04:47:39.836Z,22.24
2018-07-16T04:50:07.431Z,22.30
2018-07-16T04:52:34.983Z,22.38
2018-07-16T04:55:02.609Z,22.36
2018-07-16T04:57:30.190Z,22.38
2018-07-16T04:59:57.714Z,22.49
2018-07-16T05:02:25.290Z,22.45
2018-07-16T05:04:52.850Z,22.38
2018-07-16T05:07:20.418Z,22.30
2018-07-16T05:09:48.011Z,22.35
2018-07-16T05:12:15.607Z,22.33
2018-07-16T05:14:43.187Z,22.11
2018-07-16T05:17:10.765Z,22.03
2018-07-16T05:19:38.326Z,21.68
2018-07-16T05:22:05.941Z,21.49
2018-07-16T05:24:33.476Z,21.56
2018-07-16T05:27:01.064Z,21.60
2018-07-16T05:29:28.619Z,21.64
2018-07-16T05:31:56.346Z,21.85
2018-07-16T05:34:23.789Z,22.06
2018-07-16T05:36:51.335Z,22.18
2018-07-16T05:39:18.879Z,22.29
2018-07-16T05:41:46.483Z,22.35
2018-07-16T05:44:14.023Z,22.26
2018-07-16T05:46:41.582Z,22.28
2018-07-16T05:49:09.199Z,22.31
2018-07-16T05:51:36.732Z,22.29
2018-07-16T05:54:04.298Z,22.32
2018-07-16T05:56:31.940Z,22.30
2018-07-16T05:58:59.485Z,22.31
2018-07-16T06:01:27.030Z,22.33
2018-07-16T06:03:54.620Z,22.28
2018-07-16T06:06:22.159Z,22.25
2018-07-16T06:08:49.758Z,22.23
2018-07-16T06:11:17.342Z,22.12
2018-07-16T06:13:46.076Z,22.11
2018-07-16T06:16:15.644Z,22.05
2018-07-16T06:18:43.202Z,22.01
2018-07-16T06:21:10.795Z,22.01
2018-07-16T06:23:38.459Z,22.04
2018-07-16T06:26:06.055Z,22.07
2018-07-16T06:28:33.598Z,22.05
2018-07-16T06:31:01.152Z,22.05
2018-07-16T06:33:28.730Z,22.03
2018-07-16T06:35:56.260Z,22.02
2018-07-16T06:38:23.834Z,22.01
2018-07-16T06:40:51.654Z,21.91
2018-07-16T06:43:18.998Z,21.79
2018-07-16T06:45:46.557Z,21.56
2018-07-16T06:48:14.143Z,21.59
2018-07-16T06:50:41.678Z,21.56
2018-07-16T06:53:09.309Z,21.52
2018-07-16T06:55:36.921Z,21.57
2018-07-16T06:58:04.454Z,21.56
2018-07-16T07:00:32.022Z,21.56
2018-07-16T07:02:59.587Z,21.55
2018-07-16T07:05:27.133Z,21.64
2018-07-16T07:07:54.687Z,21.73
2018-07-16T07:10:22.262Z,21.76
2018-07-16T07:12:49.803Z,21.83
2018-07-16T07:15:17.334Z,21.87
2018-07-16T07:17:44.897Z,21.89
2018-07-16T07:20:12.478Z,21.96
2018-07-16T07:22:40.039Z,21.97
2018-07-16T07:25:07.678Z,22.08
2018-07-16T07:27:35.221Z,22.07
2018-07-16T07:30:02.816Z,22.03
2018-07-16T07:32:30.501Z,22.05
2018-07-16T07:34:58.116Z,22.12
2018-07-16T07:37:25.614Z,22.13
2018-07-16T07:39:53.179Z,22.12
2018-07-16T07:42:20.728Z,22.16
2018-07-16T07:44:48.291Z,22.20
2018-07-16T07:47:15.878Z,22.27
2018-07-16T07:49:43.470Z,22.26
2018-07-16T07:52:10.995Z,22.27
2018-07-16T07:54:38.602Z,22.31
2018-07-16T07:57:06.122Z,22.39
2018-07-16T07:59:33.680Z,22.36
2018-07-16T08:02:03.376Z,22.27
2018-07-16T08:04:30.920Z,22.18
2018-07-16T08:07:04.075Z,22.20
2018-07-16T08:09:31.675Z,22.24
2018-07-16T08:11:59.243Z,22.28
2018-07-16T08:14:26.909Z,22.32
2018-07-16T08:16:54.606Z,22.36
2018-07-16T08:19:22.892Z,22.43
2018-07-16T08:21:50.529Z,22.41
2018-07-16T08:24:18.106Z,22.46
2018-07-16T08:26:45.700Z,22.46
2018-07-16T08:29:13.328Z,22.41
2018-07-16T08:31:40.907Z,22.40
2018-07-16T08:34:08.555Z,22.45
2018-07-16T08:36:36.136Z,22.39
2018-07-16T08:39:04.845Z,22.38
2018-07-16T08:41:32.372Z,22.38
2018-07-16T08:44:00.011Z,22.40
2018-07-16T08:46:27.555Z,22.36
2018-07-16T08:48:55.120Z,22.40
2018-07-16T08:51:22.690Z,22.42
2018-07-16T08:53:50.231Z,22.47
2018-07-16T08:56:17.809Z,22.52
2018-07-16T08:58:45.966Z,22.42
2018-07-16T09:01:13.488Z,22.52
2018-07-16T09:03:41.012Z,22.56
2018-07-16T09:06:08.692Z,22.61
2018-07-16T09:08:36.378Z,22.64
2018-07-16T09:11:04.391Z,22.66
2018-07-16T09:13:32.056Z,22.73
2018-07-16T09:15:59.643Z,22.78
2018-07-16T09:18:27.207Z,22.83
2018-07-16T09:20:54.804Z,22.93
2018-07-16T09:23:22.380Z,23.00
2018-07-16T09:25:49.949Z,23.02
2018-07-16T09:28:17.565Z,23.02
2018-07-16T09:30:45.091Z,23.03
2018-07-16T09:33:13.309Z,23.14
2018-07-16T09:35:40.919Z,23.26
2018-07-16T09:38:08.525Z,23.38
2018-07-16T09:40:36.231Z,23.49
2018-07-16T09:43:03.882Z,23.60
2018-07-16T09:45:31.702Z,23.66
2018-07-16T09:47:59.242Z,23.70
2018-07-16T09:50:26.862Z,23.90
2018-07-16T09:52:54.538Z,24.06
2018-07-16T09:55:22.207Z,24.21
2018-07-16T09:57:49.771Z,24.38
2018-07-16T10:00:22.857Z,24.54
2018-07-16T10:02:50.507Z,24.63
2018-07-16T10:05:18.082Z,24.77
2018-07-16T10:07:45.639Z,24.84
2018-07-16T10:10:13.224Z,24.90
2018-07-16T10:12:41.129Z,25.06
2018-07-16T10:15:08.932Z,25.04
2018-07-16T10:17:36.887Z,24.88
2018-07-16T10:20:04.460Z,24.85
2018-07-16T10:22:32.034Z,24.96
2018-07-16T10:24:59.590Z,24.90
2018-07-16T10:27:27.130Z,25.04
2018-07-16T10:29:54.707Z,25.16
2018-07-16T10:32:22.293Z,25.46
2018-07-16T10:34:49.826Z,25.72
2018-07-16T10:37:17.503Z,25.90
2018-07-16T10:39:45.071Z,26.16
2018-07-16T10:42:12.692Z,26.59
2018-07-16T10:44:40.258Z,27.07
2018-07-16T10:47:07.843Z,26.99
2018-07-16T10:49:35.414Z,26.98
2018-07-16T10:52:02.993Z,26.93
2018-07-16T10:54:30.609Z,26.95
2018-07-16T10:56:58.180Z,27.29
2018-07-16T10:59:25.741Z,27.53
2018-07-16T11:01:53.370Z,27.98
2018-07-16T11:04:20.895Z,28.49
2018-07-16T11:06:48.458Z,28.97
2018-07-16T11:09:16.023Z,29.25
2018-07-16T11:11:43.583Z,29.88
2018-07-16T11:14:11.119Z,30.63
2018-07-16T11:16:38.675Z,30.95
2018-07-16T11:19:06.235Z,30.90
2018-07-16T11:21:33.798Z,30.57
2018-07-16T11:24:01.393Z,30.32
2018-07-16T11:26:28.947Z,30.36
2018-07-16T11:28:56.518Z,31.16
2018-07-16T11:31:24.128Z,31.42
2018-07-16T11:33:51.682Z,31.67
2018-07-16T11:36:19.228Z,31.81
2018-07-16T11:38:46.811Z,31.71
2018-07-16T11:41:14.354Z,32.23
2018-07-16T11:43:41.944Z,32.72
2018-07-16T11:46:09.623Z,33.30
2018-07-16T11:48:37.149Z,33.05
2018-07-16T11:51:04.710Z,33.13
2018-07-16T11:53:32.368Z,32.60
2018-07-16T11:55:59.910Z,32.78
2018-07-16T11:58:27.502Z,33.23
2018-07-16T12:00:55.109Z,33.94
2018-07-16T12:03:23.718Z,33.80
2018-07-16T12:05:51.283Z,33.59
2018-07-16T12:08:18.867Z,33.91
2018-07-16T12:10:46.424Z,35.05
2018-07-16T12:13:13.982Z,36.20
2018-07-16T12:15:41.766Z,36.96
2018-07-16T12:18:09.332Z,37.18
2018-07-16T12:20:37.006Z,37.76
2018-07-16T12:23:04.570Z,38.12
2018-07-16T12:25:32.131Z,38.45
2018-07-16T12:27:59.726Z,38.86
2018-07-16T12:30:27.371Z,39.39
2018-07-16T12:32:54.940Z,39.88
2018-07-16T12:35:22.489Z,39.52
2018-07-16T12:37:50.062Z,39.80
2018-07-16T12:40:17.642Z,39.88
2018-07-16T12:42:45.199Z,39.71
2018-07-16T12:45:12.765Z,40.08
2018-07-16T12:47:40.326Z,40.08
2018-07-16T12:50:07.907Z,40.22
2018-07-16T12:52:35.519Z,39.77
2018-07-16T12:55:03.125Z,40.46
2018-07-16T12:57:30.692Z,40.85
2018-07-16T12:59:58.316Z,40.85
2018-07-16T13:02:25.861Z,41.08
2018-07-16T13:04:53.438Z,41.27
2018-07-16T13:07:21.029Z,41.44
2018-07-16T13:09:48.601Z,41.41
2018-07-16T13:12:16.150Z,41.62
2018-07-16T13:14:44.858Z,41.77
2018-07-16T13:17:12.520Z,41.56
2018-07-16T13:19:40.140Z,41.88
2018-07-16T13:22:07.780Z,42.07
2018-07-16T13:24:35.358Z,42.25
2018-07-16T13:27:02.923Z,42.39
2018-07-16T13:29:30.996Z,42.02
2018-07-16T13:31:58.651Z,39.85
2018-07-16T13:34:26.247Z,38.54
2018-07-16T13:36:54.079Z,40.00
2018-07-16T13:39:21.647Z,40.31
2018-07-16T13:41:49.302Z,39.84
2018-07-16T13:44:16.903Z,40.78
2018-07-16T13:46:44.461Z,41.33
2018-07-16T13:49:12.062Z,41.51
2018-07-16T13:51:39.636Z,41.85
2018-07-16T13:54:07.245Z,41.94
2018-07-16T13:56:35.051Z,42.23
2018-07-16T13:59:02.657Z,42.53
2018-07-16T14:01:30.488Z,42.34
2018-07-16T14:03:58.083Z,42.66
2018-07-16T14:06:25.677Z,42.89
2018-07-16T14:08:53.227Z,41.58
2018-07-16T14:11:20.848Z,38.89
2018-07-16T14:13:48.460Z,37.39
2018-07-16T14:16:16.018Z,39.05
2018-07-16T14:18:43.615Z,40.19
2018-07-16T14:21:11.236Z,40.44
2018-07-16T14:23:38.773Z,38.08
2018-07-16T14:26:06.378Z,36.17
2018-07-16T14:28:33.972Z,34.97
2018-07-16T14:31:01.535Z,36.09
2018-07-16T14:33:29.110Z,37.60
2018-07-16T14:35:56.716Z,38.23
2018-07-16T14:38:24.363Z,38.69
2018-07-16T14:40:51.922Z,39.40
2018-07-16T14:43:19.493Z,39.40
2018-07-16T14:45:47.187Z,37.98
2018-07-16T14:48:14.783Z,35.78
2018-07-16T14:50:42.367Z,36.74
2018-07-16T14:53:09.914Z,35.14
2018-07-16T14:55:37.522Z,36.23
2018-07-16T14:58:05.217Z,36.94
2018-07-16T15:00:32.752Z,37.29
2018-07-16T15:03:00.303Z,37.30
2018-07-16T15:05:27.897Z,37.34
2018-07-16T15:07:55.455Z,37.37
2018-07-16T15:10:23.023Z,37.14
2018-07-16T15:12:50.609Z,36.78
2018-07-16T15:15:18.222Z,36.55
2018-07-16T15:17:45.786Z,36.18
2018-07-16T15:20:13.378Z,35.54
2018-07-16T15:22:40.994Z,34.81
2018-07-16T15:25:08.591Z,34.14
2018-07-16T15:27:36.179Z,33.71
2018-07-16T15:30:04.410Z,33.26
2018-07-16T15:32:32.030Z,32.94
2018-07-16T15:34:59.643Z,32.64
2018-07-16T15:37:27.211Z,32.29
2018-07-16T15:39:54.786Z,32.13
2018-07-16T15:42:22.470Z,31.87
2018-07-16T15:44:50.236Z,31.52
2018-07-16T15:47:17.794Z,31.35
2018-07-16T15:49:45.907Z,31.23
2018-07-16T15:52:13.473Z,31.19
2018-07-16T15:54:41.023Z,31.08
2018-07-16T15:57:08.621Z,31.00
2018-07-16T15:59:36.219Z,30.96
2018-07-16T16:02:03.886Z,30.89
2018-07-16T16:04:31.793Z,30.70
2018-07-16T16:06:59.637Z,30.54
2018-07-16T16:09:27.327Z,30.27
2018-07-16T16:11:55.138Z,30.06
2018-07-16T16:14:22.723Z,30.03
2018-07-16T16:16:50.324Z,30.07
2018-07-16T16:19:18.038Z,30.17
2018-07-16T16:21:45.830Z,30.13
2018-07-16T16:24:13.425Z,29.99
2018-07-16T16:26:41.026Z,29.99
2018-07-16T16:29:08.668Z,29.96
2018-07-16T16:31:36.493Z,29.86
2018-07-16T16:34:04.147Z,29.87
2018-07-16T16:36:31.821Z,29.82
2018-07-16T16:38:59.395Z,29.70
2018-07-16T16:41:27.042Z,29.66
2018-07-16T16:43:54.709Z,29.67
2018-07-16T16:46:22.405Z,29.71
2018-07-16T16:48:50.042Z,29.69
2018-07-16T16:51:17.801Z,29.64
2018-07-16T16:53:45.369Z,29.60
2018-07-16T16:56:12.977Z,29.54
2018-07-16T16:58:40.565Z,29.52
2018-07-16T17:01:08.204Z,29.46
2018-07-16T17:03:35.803Z,29.38
2018-07-16T17:06:03.560Z,29.26
2018-07-16T17:08:31.195Z,29.14
2018-07-16T17:10:58.768Z,29.09
2018-07-16T17:13:26.315Z,29.04
2018-07-16T17:15:53.894Z,29.01
2018-07-16T17:18:22.444Z,28.94
2018-07-16T17:20:50.067Z,28.89
2018-07-16T17:23:17.738Z,28.86
2018-07-16T17:25:45.351Z,28.79
2018-07-16T17:28:13.032Z,28.75
2018-07-16T17:30:40.574Z,28.71
2018-07-16T17:33:08.181Z,28.70
2018-07-16T17:35:35.762Z,28.70
2018-07-16T17:38:03.466Z,28.67
2018-07-16T17:40:31.134Z,28.63
2018-07-16T17:42:58.739Z,28.57
2018-07-16T17:45:26.232Z,28.54
2018-07-16T17:47:53.889Z,28.44
2018-07-16T17:50:21.491Z,28.39
2018-07-16T17:52:49.184Z,28.30
2018-07-16T17:55:16.764Z,28.22
2018-07-16T17:57:44.390Z,28.11
2018-07-16T18:00:11.989Z,28.04
2018-07-16T18:02:39.812Z,27.97
2018-07-16T18:05:07.420Z,27.91
2018-07-16T18:07:35.019Z,27.81
2018-07-16T18:10:02.684Z,27.79
2018-07-16T18:12:30.391Z,27.75
2018-07-16T18:14:57.947Z,27.68
2018-07-16T18:17:25.531Z,27.63
2018-07-16T18:19:53.124Z,27.56
2018-07-16T18:22:20.730Z,27.47
2018-07-16T18:24:48.404Z,27.42
2018-07-16T18:27:16.636Z,27.34
2018-07-16T18:29:44.322Z,27.28
2018-07-16T18:32:12.227Z,27.23
2018-07-16T18:34:39.855Z,27.14
2018-07-16T18:37:07.398Z,27.08
2018-07-16T18:39:35.020Z,27.01
2018-07-16T18:42:03.046Z,26.96
2018-07-16T18:44:30.663Z,26.87
2018-07-16T18:46:58.322Z,26.80
2018-07-16T18:49:26.007Z,26.76
2018-07-16T18:51:53.554Z,26.66
2018-07-16T18:54:21.154Z,26.57
2018-07-16T18:56:48.724Z,26.46
2018-07-16T18:59:16.366Z,26.37
2018-07-16T19:01:43.951Z,26.27
2018-07-16T19:04:11.495Z,26.18
2018-07-16T19:06:40.255Z,26.07
2018-07-16T19:09:08.278Z,25.97
2018-07-16T19:11:35.834Z,25.88
2018-07-16T19:14:03.453Z,25.77
2018-07-16T19:16:31.025Z,25.69
2018-07-16T19:18:58.682Z,25.59
2018-07-16T19:21:26.234Z,25.49
2018-07-16T19:23:53.837Z,25.42
2018-07-16T19:26:21.419Z,25.34
2018-07-16T19:28:49.026Z,25.22
2018-07-16T19:31:16.623Z,25.12
2018-07-16T19:33:44.165Z,25.02
2018-07-16T19:36:11.735Z,24.95
2018-07-16T19:38:39.476Z,24.82
2018-07-16T19:41:07.433Z,24.76
2018-07-16T19:43:35.043Z,24.67
2018-07-16T19:46:02.811Z,24.61
2018-07-16T19:48:30.693Z,24.49
2018-07-16T19:50:58.331Z,24.40
2018-07-16T19:53:25.880Z,24.32
2018-07-16T19:55:53.491Z,24.23
2018-07-16T19:58:21.034Z,24.17
2018-07-16T20:00:48.816Z,24.12
2018-07-16T20:03:16.423Z,24.05
2018-07-16T20:05:44.047Z,23.98
2018-07-16T20:08:11.727Z,23.89
2018-07-16T20:10:39.324Z,23.83
2018-07-16T20:13:07.011Z,23.76
2018-07-16T20:15:34.646Z,23.70
2018-07-16T20:18:02.306Z,23.69
2018-07-16T20:20:30.190Z,23.64
2018-07-16T20:22:58.146Z,23.59
2018-07-16T20:25:25.946Z,23.56
2018-07-16T20:27:53.563Z,23.49
2018-07-16T20:30:21.142Z,23.44
2018-07-16T20:32:48.740Z,23.37
2018-07-16T20:35:16.298Z,23.33
2018-07-16T20:37:43.888Z,23.27
2018-07-16T20:40:11.502Z,23.24
2018-07-16T20:42:39.063Z,23.18
2018-07-16T20:45:06.684Z,23.13
2018-07-16T20:47:34.239Z,23.08
2018-07-16T20:50:01.862Z,23.04
2018-07-16T20:52:29.458Z,22.99
2018-07-16T20:54:56.979Z,22.97
2018-07-16T20:57:24.610Z,22.93
2018-07-16T20:59:52.199Z,22.90
2018-07-16T21:02:19.892Z,22.88
2018-07-16T21:04:47.424Z,22.86
2018-07-16T21:07:15.091Z,22.84
2018-07-16T21:09:43.308Z,22.80
2018-07-16T21:12:10.908Z,22.74
2018-07-16T21:14:38.722Z,22.70
2018-07-16T21:17:06.373Z,22.66
2018-07-16T21:19:34.031Z,22.62
2018-07-16T21:22:01.770Z,22.58
2018-07-16T21:24:29.374Z,22.51
2018-07-16T21:26:56.948Z,22.46
2018-07-16T21:29:24.592Z,22.40
2018-07-16T21:31:52.894Z,22.35
2018-07-16T21:34:20.402Z,22.26
2018-07-16T21:36:48.398Z,22.22
2018-07-16T21:39:15.922Z,22.17
2018-07-16T21:41:43.646Z,22.14
2018-07-16T21:44:11.378Z,22.07
2018-07-16T21:46:38.962Z,21.95
2018-07-16T21:49:06.529Z,21.91
2018-07-16T21:51:34.319Z,21.95
2018-07-16T21:54:02.059Z,21.94
2018-07-16T21:56:29.828Z,21.90
2018-07-16T21:58:57.502Z,21.66
2018-07-16T22:01:25.183Z,21.55
2018-07-16T22:03:52.783Z,21.42
2018-07-16T22:06:20.355Z,21.34
2018-07-16T22:08:47.987Z,21.41
2018-07-16T22:11:15.604Z,21.48
2018-07-16T22:13:43.198Z,21.46
2018-07-16T22:16:10.763Z,21.50
2018-07-16T22:18:38.286Z,21.60
2018-07-16T22:21:05.862Z,21.39
2018-07-16T22:23:33.394Z,21.40
2018-07-16T22:26:01.001Z,21.42
2018-07-16T22:28:28.639Z,21.43
2018-07-16T22:30:56.171Z,21.47
2018-07-16T22:33:23.748Z,21.49
2018-07-16T22:35:51.331Z,21.48
2018-07-16T22:38:18.875Z,21.51
2018-07-16T22:40:46.402Z,21.53
2018-07-16T22:43:14.191Z,21.55
2018-07-16T22:45:41.715Z,21.55
2018-07-16T22:48:09.255Z,21.52
2018-07-16T22:50:36.838Z,21.49
2018-07-16T22:53:04.431Z,21.46
2018-07-16T22:55:31.967Z,21.41
2018-07-16T22:57:59.558Z,21.36
2018-07-16T23:00:27.112Z,21.33
2018-07-16T23:02:54.749Z,21.36
2018-07-16T23:05:22.392Z,21.31
2018-07-16T23:07:49.905Z,21.26
2018-07-16T23:10:17.460Z,21.21
2018-07-16T23:12:45.033Z,21.18
2018-07-16T23:15:12.566Z,21.18
2018-07-16T23:17:40.086Z,21.17
2018-07-16T23:20:07.666Z,21.12
2018-07-16T23:22:47.546Z,21.11
2018-07-16T23:25:15.127Z,21.07
2018-07-16T23:27:42.662Z,21.05
2018-07-16T23:30:10.205Z,21.04
2018-07-16T23:32:37.811Z,21.01
2018-07-16T23:35:05.776Z,20.96
2018-07-16T23:37:33.318Z,20.93
2018-07-16T23:40:00.881Z,20.93
2018-07-16T23:42:28.458Z,20.88
2018-07-16T23:44:56.003Z,20.85
2018-07-16T23:47:23.618Z,20.86
2018-07-16T23:49:51.155Z,20.85
2018-07-16T23:52:18.735Z,20.70
2018-07-16T23:54:46.295Z,20.67
2018-07-16T23:57:13.881Z,20.70
2018-07-16T23:59:41.406Z,20.69
